Terminal Aerodrome Forecast
Issued by NWS Rapid City, SD

Home | Current Version | Previous Version | Graphics & Text | Print | Product List | Glossary On
Versions: 1 2 3 4 5 6 7 8 9 10 11 12 13 14 15 16 17 18 19 20
000
FTUS43 KUNR 230700 AAA
TAFRAP
TAF AMD
KRAP 230701Z 2307/2406 33015G25KT P6SM SCT120
     FM231800 32036G48KT P6SM BKN100=

USA.gov is the U.S. government's official web portal to all federal, state and local government web resources and services.